Ana Sayfa
METAR-TAF:

METAR-TAF

Havaalanları :

Şanghay Pudong Uluslararası Havalimanı

Şanghay-Pudong, Çin

Enlem: 31-07N, Boylam: 121-46E, yükseklik: 4 m

Güncel hava durumu gözlemi

Rapor saat 11:00 UTC de 16 dakika önce yapıldı.
Rüzgar kuzeydoğudan 16 kt
Sıcaklık 10°C
Nem 87%
Basınç 1026 hPa
Görüş mesafesi 10 km veya daha fazla
1600 ft yükseklikte parçalı çok bulutlu
hafif yağmur

METAR: ZSPD 101100Z 05008MPS 9999 -RA BKN016 10/08 Q1026 NOSIG

Saat: 19:16 (11:16 UTC)

Tahmin

Rapor saat 03:17 UTC de 7 saat ve 59 dakika önce yapıldı.
Ayın 10'si saat 06 UTC'den ayın 11'si saat 06 UTC'ye kadar geçerli Tahmin
Rüzgar kuzeydoğudan 12 kt
Görüş mesafesi: 6000 m
1100 ft yükseklikte parçalı çok bulutlu
Dönüşüyor
ayın 10'si saat 21 UTC'den ayın 10'si saat 22 UTC'ye kadar
Rüzgar kuzey/kuzeybatıdan 17 kt ve 29 kt'a kadar ani rüzgarlar

TAF: ZSPD 100317Z 1006/1106 05006MPS 6000 BKN011 TX10/1006Z TN03/1020Z BECMG 1021/1022 34009G15MPS

4.000'den fazla havaalanı için hava durumu gözlemleri ve tahminleri (METAR ve TAF raporları).

Kullanılabilir istasyonlar harita üzerinde sarı ve kırmızı noktalarla gösterilir.

İstasyonun adını görmek için fareyi noktanın üzerinde gezdirin.

Sonrasında hava gözlem ve tahminlerini görmek için tıklayın.

Haritayı değiştirmek için: yaklaştırmak için siyah artı işaretli yeşil düğmeye ve uzaklaştırmak için de eksi işaretli düğmeye hızla tıklayın; bitişik haritalar için yeşil okları kullanın.


METAR-TAF: